Time;durP1;ratioP1;P1;durP2;ratioP2;P2;SDS_P1;SDS_P2;PMS_P1;PMS_P2;Temp;Humidity;BMP_temperature;BMP_pressure;BME280_temperature;BME280_humidity;BME280_pressure;Samples;Min_cycle;Max_cycle;Signal;HPM_P1;HPM_P2
2023/11/02 00:01:56;;;;;;;2.17;1.97;;;;;;;;;;5107412;28;20447;-72
2023/11/02 00:04:24;;;;;;;1.70;1.60;;;;;;;;;;5102091;28;20550;-71
2023/11/02 00:06:50;;;;;;;1.90;1.80;;;;;;;;;;5103145;28;20482;-71
2023/11/02 00:09:36;;;;;;;1.77;1.60;;;;;;;;;;5109220;28;20443;-71
2023/11/02 00:12:05;;;;;;;1.57;1.40;;;;;;;;;;5096267;28;20471;-71
2023/11/02 00:14:35;;;;;;;2.60;1.77;;;;;;;;;;5104668;28;20458;-71
2023/11/02 00:17:02;;;;;;;2.50;1.50;;;;;;;;;;5095993;28;20485;-71
2023/11/02 00:19:30;;;;;;;3.83;1.57;;;;;;;;;;5095309;28;20462;-71
2023/11/02 00:21:58;;;;;;;3.53;1.70;;;;;;;;;;5099493;28;20446;-71
2023/11/02 00:24:24;;;;;;;2.33;1.40;;;;;;;;;;5093119;28;20502;-71
2023/11/02 00:26:51;;;;;;;4.60;2.40;;;;;;;;;;5107243;28;21108;-72
2023/11/02 00:29:18;;;;;;;3.97;2.07;;;;;;;;;;5103883;28;20454;-71
2023/11/02 00:31:45;;;;;;;4.60;2.47;;;;;;;;;;5108439;28;20537;-71
2023/11/02 00:34:11;;;;;;;2.20;2.00;;;;;;;;;;5108377;28;20517;-71
2023/11/02 00:36:38;;;;;;;1.93;1.83;;;;;;;;;;5103181;28;20474;-71
2023/11/02 00:39:05;;;;;;;2.20;2.00;;;;;;;;;;5099682;28;20490;-71
2023/11/02 00:41:31;;;;;;;1.77;1.67;;;;;;;;;;5090112;28;20460;-72
2023/11/02 00:43:58;;;;;;;1.60;1.50;;;;;;;;;;5109642;28;20490;-72
2023/11/02 00:46:26;;;;;;;2.53;2.00;;;;;;;;;;5094119;28;20479;-71
2023/11/02 00:48:52;;;;;;;4.63;3.53;;;;;;;;;;5098639;28;21022;-71
2023/11/02 00:51:24;;;;;;;3.13;1.50;;;;;;;;;;5103973;28;20514;-71
2023/11/02 00:53:52;;;;;;;1.97;1.87;;;;;;;;;;5097454;28;20455;-72
2023/11/02 00:56:19;;;;;;;2.63;1.93;;;;;;;;;;5092609;28;21011;-71
2023/11/02 00:58:47;;;;;;;2.40;2.20;;;;;;;;;;5097665;28;20954;-72
2023/11/02 01:01:15;;;;;;;3.83;1.83;;;;;;;;;;5105614;28;20472;-72
2023/11/02 01:03:46;;;;;;;5.13;2.27;;;;;;;;;;5095492;28;21350;-71
2023/11/02 01:06:14;;;;;;;2.30;1.83;;;;;;;;;;5098981;28;20490;-74
2023/11/02 01:08:41;;;;;;;1.80;1.70;;;;;;;;;;5095433;28;20478;-74
2023/11/02 01:11:09;;;;;;;6.20;2.17;;;;;;;;;;5099393;28;20513;-73
2023/11/02 01:13:36;;;;;;;3.60;1.70;;;;;;;;;;5095904;28;20459;-74
2023/11/02 01:16:06;;;;;;;2.10;1.60;;;;;;;;;;5098206;28;20470;-73
2023/11/02 01:18:32;;;;;;;3.70;1.40;;;;;;;;;;5093983;28;20465;-73
2023/11/02 01:21:02;;;;;;;2.90;1.53;;;;;;;;;;5104243;28;20489;-72
2023/11/02 01:23:29;;;;;;;3.47;1.60;;;;;;;;;;5095605;28;20483;-71
2023/11/02 01:25:56;;;;;;;1.60;1.30;;;;;;;;;;5053738;28;1193055;-72
2023/11/02 01:28:24;;;;;;;1.20;1.10;;;;;;;;;;5097512;28;20850;-72
2023/11/02 01:31:04;;;;;;;1.83;1.73;;;;;;;;;;5097175;28;20469;-72
2023/11/02 01:33:48;;;;;;;2.83;1.43;;;;;;;;;;5107652;28;20952;-71
2023/11/02 01:36:23;;;;;;;4.17;1.70;;;;;;;;;;5097933;28;20478;-72
2023/11/02 01:38:52;;;;;;;3.17;2.07;;;;;;;;;;5094423;28;20486;-71
2023/11/02 01:41:24;;;;;;;2.60;1.43;;;;;;;;;;5102800;28;20462;-71
2023/11/02 01:43:53;;;;;;;1.60;1.50;;;;;;;;;;5096488;28;20483;-72
2023/11/02 01:46:26;;;;;;;6.00;1.70;;;;;;;;;;5096155;28;20474;-72
2023/11/02 01:48:55;;;;;;;1.70;1.60;;;;;;;;;;5099333;28;20473;-72
2023/11/02 01:51:32;;;;;;;5.13;1.80;;;;;;;;;;5089687;28;20459;-72
2023/11/02 01:54:05;;;;;;;5.13;1.70;;;;;;;;;;5095647;28;20455;-71
2023/11/02 01:56:38;;;;;;;2.60;2.10;;;;;;;;;;5103426;28;20451;-71
2023/11/02 01:59:10;;;;;;;2.60;1.83;;;;;;;;;;5096317;28;20493;-71
2023/11/02 02:01:41;;;;;;;2.30;2.10;;;;;;;;;;5108781;28;21114;-72
2023/11/02 02:04:16;;;;;;;1.93;1.73;;;;;;;;;;5100047;28;20442;-72
2023/11/02 02:06:48;;;;;;;2.13;1.93;;;;;;;;;;5086873;28;20478;-71
2023/11/02 02:09:23;;;;;;;1.60;1.50;;;;;;;;;;5091443;28;20459;-71
2023/11/02 02:11:53;;;;;;;1.63;1.50;;;;;;;;;;5091308;28;20489;-71
2023/11/02 02:14:26;;;;;;;4.40;1.40;;;;;;;;;;5097314;28;20493;-71
2023/11/02 02:16:55;;;;;;;2.10;1.30;;;;;;;;;;5098888;28;20456;-71
2023/11/02 02:19:38;;;;;;;3.30;1.50;;;;;;;;;;5099175;28;20537;-71
2023/11/02 02:22:09;;;;;;;1.83;1.40;;;;;;;;;;5090076;28;20451;-71
2023/11/02 02:24:38;;;;;;;1.40;1.30;;;;;;;;;;5085607;28;20489;-71
2023/11/02 02:27:26;;;;;;;1.77;1.30;;;;;;;;;;5061118;28;20488;-71
2023/11/02 02:30:07;;;;;;;4.33;2.10;;;;;;;;;;5044883;28;20462;-70
2023/11/02 02:32:49;;;;;;;1.83;1.70;;;;;;;;;;5051637;28;20465;-71
2023/11/02 02:35:20;;;;;;;1.57;1.47;;;;;;;;;;5058506;28;20492;-70
2023/11/02 02:37:50;;;;;;;3.80;1.60;;;;;;;;;;5046781;28;20575;-71
2023/11/02 02:40:18;;;;;;;1.50;1.40;;;;;;;;;;5059929;28;20480;-71
2023/11/02 02:42:46;;;;;;;3.83;1.70;;;;;;;;;;5057080;28;20472;-70
2023/11/02 02:45:13;;;;;;;3.17;2.83;;;;;;;;;;5052261;28;20935;-71
2023/11/02 02:47:41;;;;;;;1.77;1.67;;;;;;;;;;5059040;28;20457;-71
2023/11/02 02:50:09;;;;;;;2.00;1.37;;;;;;;;;;5063642;28;20467;-71
2023/11/02 02:52:37;;;;;;;6.53;1.90;;;;;;;;;;5055537;28;20546;-71
2023/11/02 02:55:06;;;;;;;1.70;1.50;;;;;;;;;;5060034;28;20488;-72
2023/11/02 02:57:34;;;;;;;1.77;1.67;;;;;;;;;;5057106;28;20516;-72
2023/11/02 03:00:01;;;;;;;1.67;1.57;;;;;;;;;;5052339;28;20489;-72
2023/11/02 03:02:31;;;;;;;3.07;2.10;;;;;;;;;;5056053;28;20887;-71
2023/11/02 03:04:58;;;;;;;2.00;1.80;;;;;;;;;;5047700;28;20457;-71
2023/11/02 03:07:26;;;;;;;1.50;1.30;;;;;;;;;;5056822;28;20458;-71
2023/11/02 03:09:55;;;;;;;1.87;1.77;;;;;;;;;;5047016;28;20492;-71
2023/11/02 03:12:24;;;;;;;1.70;1.60;;;;;;;;;;5062131;28;20476;-71
2023/11/02 03:14:52;;;;;;;1.30;1.20;;;;;;;;;;5040762;28;20497;-71
2023/11/02 03:17:20;;;;;;;1.63;1.53;;;;;;;;;;5053758;28;20525;-71
2023/11/02 03:19:48;;;;;;;1.50;1.40;;;;;;;;;;5053431;28;20508;-74
2023/11/02 03:22:15;;;;;;;1.47;1.37;;;;;;;;;;5057192;28;20508;-72
2023/11/02 03:24:47;;;;;;;2.13;1.30;;;;;;;;;;5062708;28;20514;-72
2023/11/02 03:27:18;;;;;;;1.77;1.67;;;;;;;;;;5086020;28;20503;-72
2023/11/02 03:29:48;;;;;;;1.63;1.53;;;;;;;;;;5068214;28;20468;-72
2023/11/02 03:32:19;;;;;;;1.80;1.70;;;;;;;;;;5069059;28;20488;-72
2023/11/02 03:34:48;;;;;;;3.80;1.50;;;;;;;;;;5079872;28;20469;-71
2023/11/02 03:37:18;;;;;;;4.30;2.23;;;;;;;;;;5085089;28;20483;-72
2023/11/02 03:39:55;;;;;;;4.93;1.80;;;;;;;;;;5075445;28;20487;-74
2023/11/02 03:42:30;;;;;;;2.10;2.00;;;;;;;;;;5071614;28;20468;-73
2023/11/02 03:45:00;;;;;;;3.30;1.70;;;;;;;;;;5075647;28;20456;-73
2023/11/02 03:47:34;;;;;;;3.93;2.00;;;;;;;;;;5067372;28;20479;-73
2023/11/02 03:50:05;;;;;;;2.50;1.87;;;;;;;;;;5064370;28;20949;-72
2023/11/02 03:52:39;;;;;;;4.53;1.70;;;;;;;;;;5068814;28;20921;-71
2023/11/02 03:55:11;;;;;;;1.93;1.83;;;;;;;;;;5072825;28;20451;-71
2023/11/02 03:57:52;;;;;;;2.60;1.80;;;;;;;;;;5078079;28;21143;-73
2023/11/02 04:00:21;;;;;;;2.53;1.73;;;;;;;;;;5071914;28;20575;-72
2023/11/02 04:02:49;;;;;;;3.20;1.83;;;;;;;;;;5087211;28;20461;-75
2023/11/02 04:05:23;;;;;;;2.27;2.10;;;;;;;;;;5090410;28;20526;-73
2023/11/02 04:07:57;;;;;;;2.20;2.00;;;;;;;;;;5078281;28;20493;-72
2023/11/02 04:10:25;;;;;;;2.70;2.33;;;;;;;;;;5084148;28;21398;-73
2023/11/02 04:12:59;;;;;;;2.10;1.90;;;;;;;;;;5076954;28;20502;-73
2023/11/02 04:15:25;;;;;;;2.07;1.93;;;;;;;;;;5070792;28;20460;-71
2023/11/02 04:17:51;;;;;;;2.33;1.90;;;;;;;;;;5080076;28;20484;-72
2023/11/02 04:20:17;;;;;;;2.57;2.10;;;;;;;;;;5073524;28;20493;-73
2023/11/02 04:22:44;;;;;;;3.80;1.43;;;;;;;;;;5082646;28;20237;-73
2023/11/02 04:25:10;;;;;;;1.90;1.80;;;;;;;;;;5084068;28;20547;-72
2023/11/02 04:27:37;;;;;;;3.57;2.20;;;;;;;;;;5085430;28;20525;-74
2023/11/02 04:30:05;;;;;;;2.93;2.73;;;;;;;;;;5084627;28;20537;-73
2023/11/02 04:32:32;;;;;;;5.50;2.37;;;;;;;;;;5086138;28;20562;-73
2023/11/02 04:34:59;;;;;;;2.10;1.90;;;;;;;;;;5077994;28;20455;-74
2023/11/02 04:37:25;;;;;;;3.47;2.40;;;;;;;;;;5078638;28;20505;-74
2023/11/02 04:39:52;;;;;;;2.43;2.03;;;;;;;;;;5079714;28;20485;-73
2023/11/02 04:42:18;;;;;;;2.53;2.33;;;;;;;;;;5086250;28;20488;-72
2023/11/02 04:44:45;;;;;;;5.70;2.60;;;;;;;;;;5082990;28;20459;-73
2023/11/02 04:47:13;;;;;;;3.77;2.30;;;;;;;;;;5077187;28;20484;-73
2023/11/02 04:49:39;;;;;;;2.30;2.10;;;;;;;;;;5085436;28;20479;-72
2023/11/02 04:52:06;;;;;;;2.30;2.20;;;;;;;;;;5075634;28;20522;-72
2023/11/02 04:54:33;;;;;;;3.40;2.07;;;;;;;;;;5084793;28;20455;-70
2023/11/02 04:57:00;;;;;;;2.27;2.07;;;;;;;;;;5079279;28;20780;-71
2023/11/02 04:59:28;;;;;;;2.43;2.23;;;;;;;;;;5079109;28;21041;-72
2023/11/02 05:01:57;;;;;;;2.47;1.90;;;;;;;;;;5083681;28;20458;-71
2023/11/02 05:04:25;;;;;;;2.47;2.20;;;;;;;;;;5077960;28;20467;-71
2023/11/02 05:06:51;;;;;;;2.03;1.93;;;;;;;;;;5084923;28;20498;-72
2023/11/02 05:09:17;;;;;;;1.90;1.80;;;;;;;;;;5079649;28;20559;-71
2023/11/02 05:11:46;;;;;;;2.90;2.50;;;;;;;;;;5078931;28;20492;-71
2023/11/02 05:14:13;;;;;;;2.10;1.90;;;;;;;;;;5076897;28;20464;-73
2023/11/02 05:16:39;;;;;;;2.53;2.33;;;;;;;;;;5089652;28;20926;-72
2023/11/02 05:19:06;;;;;;;2.10;2.00;;;;;;;;;;5088051;28;20456;-72
2023/11/02 05:21:33;;;;;;;2.73;2.03;;;;;;;;;;5079729;28;20482;-74
2023/11/02 05:24:00;;;;;;;3.30;2.00;;;;;;;;;;5086955;28;20493;-71
2023/11/02 05:26:26;;;;;;;3.80;2.17;;;;;;;;;;5088042;28;20523;-71
2023/11/02 05:28:53;;;;;;;2.43;2.23;;;;;;;;;;5084886;28;20462;-72
2023/11/02 05:31:19;;;;;;;2.20;2.10;;;;;;;;;;5074248;28;20519;-71
2023/11/02 05:33:46;;;;;;;2.20;2.07;;;;;;;;;;5071374;28;20463;-72
2023/11/02 05:36:12;;;;;;;2.50;2.33;;;;;;;;;;5077932;28;20571;-73
2023/11/02 05:38:40;;;;;;;2.60;2.40;;;;;;;;;;5083496;28;20542;-72
2023/11/02 05:41:06;;;;;;;1.97;1.83;;;;;;;;;;5074604;28;20510;-73
2023/11/02 05:43:34;;;;;;;2.60;2.17;;;;;;;;;;5069580;28;20499;-71
2023/11/02 05:46:01;;;;;;;1.77;1.67;;;;;;;;;;5081648;28;20459;-72
2023/11/02 05:48:27;;;;;;;3.93;1.83;;;;;;;;;;5086594;28;20461;-72
2023/11/02 05:50:54;;;;;;;4.07;1.70;;;;;;;;;;5081871;28;20502;-72
2023/11/02 05:53:20;;;;;;;5.77;1.70;;;;;;;;;;5077279;28;20447;-71
2023/11/02 05:55:48;;;;;;;1.70;1.60;;;;;;;;;;5081392;28;20500;-75
2023/11/02 05:58:14;;;;;;;3.87;2.10;;;;;;;;;;5091289;28;20527;-71
2023/11/02 06:00:41;;;;;;;1.83;1.70;;;;;;;;;;5078507;28;20474;-72
2023/11/02 06:03:07;;;;;;;2.53;1.90;;;;;;;;;;5072524;28;20441;-73
2023/11/02 06:05:34;;;;;;;3.60;2.20;;;;;;;;;;5087390;28;20494;-73
2023/11/02 06:08:00;;;;;;;2.37;2.17;;;;;;;;;;5086648;28;20507;-68
2023/11/02 06:10:27;;;;;;;2.63;2.00;;;;;;;;;;5089616;28;21020;-72
2023/11/02 06:12:55;;;;;;;3.57;2.37;;;;;;;;;;5078604;28;20840;-69
2023/11/02 06:15:21;;;;;;;2.70;2.23;;;;;;;;;;5074517;28;20479;-72
2023/11/02 06:17:48;;;;;;;3.13;2.00;;;;;;;;;;5073785;28;21171;-69
2023/11/02 06:20:14;;;;;;;2.77;2.57;;;;;;;;;;5083348;28;20474;-73
2023/11/02 06:22:41;;;;;;;2.60;2.40;;;;;;;;;;5073459;28;21003;-70
2023/11/02 06:25:08;;;;;;;2.67;2.10;;;;;;;;;;5077103;28;20543;-70
2023/11/02 06:27:34;;;;;;;3.87;2.43;;;;;;;;;;5084590;28;20478;-69
2023/11/02 06:30:02;;;;;;;2.67;2.47;;;;;;;;;;5089375;28;20504;-72
2023/11/02 06:32:28;;;;;;;3.23;2.63;;;;;;;;;;5087091;28;20431;-70
2023/11/02 06:34:55;;;;;;;2.00;1.90;;;;;;;;;;5074934;28;20517;-67
2023/11/02 06:37:21;;;;;;;3.77;2.60;;;;;;;;;;5077902;28;20435;-67
2023/11/02 06:39:49;;;;;;;2.00;1.87;;;;;;;;;;5079091;28;20509;-67
2023/11/02 06:42:15;;;;;;;2.67;2.27;;;;;;;;;;5082412;28;20501;-69
2023/11/02 06:44:43;;;;;;;2.20;2.00;;;;;;;;;;5079752;28;20479;-68
2023/11/02 06:47:11;;;;;;;2.50;2.30;;;;;;;;;;5078138;28;20479;-69
2023/11/02 06:49:37;;;;;;;3.30;2.10;;;;;;;;;;5064738;28;20524;-70
2023/11/02 06:52:04;;;;;;;3.00;2.80;;;;;;;;;;5080097;28;20499;-71
2023/11/02 06:54:31;;;;;;;2.27;2.10;;;;;;;;;;5075364;28;20459;-69
2023/11/02 06:56:57;;;;;;;2.40;2.20;;;;;;;;;;5087011;28;20440;-67
2023/11/02 06:59:24;;;;;;;2.17;1.97;;;;;;;;;;5079139;28;20983;-69
2023/11/02 07:01:52;;;;;;;3.70;2.33;;;;;;;;;;5083831;28;20478;-69
2023/11/02 07:04:21;;;;;;;3.97;1.70;;;;;;;;;;5078288;28;20483;-70
2023/11/02 07:06:47;;;;;;;2.20;2.07;;;;;;;;;;5088544;28;20479;-72
2023/11/02 07:09:15;;;;;;;1.80;1.70;;;;;;;;;;5075330;28;20468;-72
2023/11/02 07:11:41;;;;;;;3.23;2.10;;;;;;;;;;5075213;28;20517;-70
2023/11/02 07:14:07;;;;;;;2.40;2.23;;;;;;;;;;5067268;28;20960;-68
2023/11/02 07:16:34;;;;;;;3.63;2.73;;;;;;;;;;5074414;28;20433;-69
2023/11/02 07:19:01;;;;;;;2.57;2.37;;;;;;;;;;5081937;28;20579;-72
2023/11/02 07:21:29;;;;;;;2.27;2.00;;;;;;;;;;5087095;28;20447;-70
2023/11/02 07:23:55;;;;;;;2.63;2.40;;;;;;;;;;5086964;28;20466;-68
2023/11/02 07:26:22;;;;;;;3.20;2.60;;;;;;;;;;5089962;28;20537;-68
2023/11/02 07:28:48;;;;;;;3.17;2.53;;;;;;;;;;5076665;28;20478;-68
2023/11/02 07:31:15;;;;;;;2.80;2.60;;;;;;;;;;5076068;28;20480;-69
2023/11/02 07:33:41;;;;;;;4.20;2.50;;;;;;;;;;5083143;28;20507;-68
2023/11/02 07:36:09;;;;;;;2.93;2.03;;;;;;;;;;5073039;28;20548;-67
2023/11/02 07:38:37;;;;;;;2.30;2.20;;;;;;;;;;5087915;28;20460;-67
2023/11/02 07:41:03;;;;;;;2.50;2.30;;;;;;;;;;5070622;28;20526;-69
2023/11/02 07:43:30;;;;;;;2.50;2.30;;;;;;;;;;5079346;28;20475;-70
2023/11/02 07:45:56;;;;;;;3.03;2.60;;;;;;;;;;5082485;28;20452;-68
2023/11/02 07:48:22;;;;;;;2.80;2.50;;;;;;;;;;5077206;28;20526;-71
2023/11/02 07:50:49;;;;;;;3.53;2.50;;;;;;;;;;5084375;28;20461;-68
2023/11/02 07:53:15;;;;;;;2.37;1.90;;;;;;;;;;5087544;28;20959;-67
2023/11/02 07:55:43;;;;;;;5.00;2.17;;;;;;;;;;5077598;28;20908;-69
2023/11/02 07:58:10;;;;;;;2.00;1.90;;;;;;;;;;5080220;28;20448;-70
2023/11/02 08:00:36;;;;;;;2.17;2.07;;;;;;;;;;5082087;28;20513;-73
2023/11/02 08:03:04;;;;;;;2.40;2.30;;;;;;;;;;5082181;28;20508;-70
2023/11/02 08:05:30;;;;;;;3.10;2.30;;;;;;;;;;5079919;28;20480;-70
2023/11/02 08:07:57;;;;;;;2.30;2.10;;;;;;;;;;5084802;28;20479;-67
2023/11/02 08:10:24;;;;;;;2.67;2.47;;;;;;;;;;5082283;28;20504;-69
2023/11/02 08:12:52;;;;;;;3.40;3.20;;;;;;;;;;5097408;28;20492;-71
2023/11/02 08:15:18;;;;;;;6.57;2.47;;;;;;;;;;5067961;28;21029;-71
2023/11/02 08:17:45;;;;;;;2.30;2.20;;;;;;;;;;5080363;28;20439;-71
2023/11/02 08:20:13;;;;;;;2.80;2.70;;;;;;;;;;5085016;28;20448;-71
2023/11/02 08:22:40;;;;;;;2.30;2.20;;;;;;;;;;5075959;28;20509;-71
2023/11/02 08:25:08;;;;;;;2.67;2.47;;;;;;;;;;5082039;28;20483;-71
2023/11/02 08:27:34;;;;;;;2.50;2.30;;;;;;;;;;5075385;28;20479;-69
2023/11/02 08:30:03;;;;;;;2.30;2.20;;;;;;;;;;5085137;28;20551;-68
2023/11/02 08:32:30;;;;;;;3.47;2.00;;;;;;;;;;5082166;28;20459;-68
2023/11/02 08:34:56;;;;;;;2.20;2.10;;;;;;;;;;5078719;28;20455;-67
2023/11/02 08:37:24;;;;;;;2.50;2.30;;;;;;;;;;5083151;28;20494;-70
2023/11/02 08:39:50;;;;;;;2.70;2.43;;;;;;;;;;5075469;28;20461;-69
2023/11/02 08:42:16;;;;;;;2.20;2.10;;;;;;;;;;5081617;28;20471;-67
2023/11/02 08:44:43;;;;;;;2.57;2.40;;;;;;;;;;5085151;28;20452;-66
2023/11/02 08:47:11;;;;;;;2.80;2.10;;;;;;;;;;5082016;28;20478;-72
2023/11/02 08:49:38;;;;;;;2.90;2.07;;;;;;;;;;5068490;28;20474;-72
2023/11/02 08:52:05;;;;;;;2.93;2.10;;;;;;;;;;5086933;28;21218;-69
2023/11/02 08:54:31;;;;;;;2.20;2.10;;;;;;;;;;5079066;28;20468;-69
2023/11/02 08:56:58;;;;;;;1.90;1.80;;;;;;;;;;5087230;28;20455;-69
2023/11/02 08:59:24;;;;;;;2.00;1.90;;;;;;;;;;5086933;28;20452;-70
2023/11/02 09:01:51;;;;;;;3.07;2.50;;;;;;;;;;5081556;28;20558;-69
2023/11/02 09:04:19;;;;;;;2.50;2.30;;;;;;;;;;5088246;28;21081;-67
2023/11/02 09:06:46;;;;;;;3.10;2.63;;;;;;;;;;5088738;28;20459;-68
2023/11/02 09:09:12;;;;;;;2.97;2.10;;;;;;;;;;5081437;28;20521;-70
2023/11/02 09:11:39;;;;;;;4.23;2.43;;;;;;;;;;5089723;28;20453;-67
2023/11/02 09:14:05;;;;;;;2.03;1.90;;;;;;;;;;5083493;28;20630;-67
2023/11/02 09:16:32;;;;;;;2.70;1.70;;;;;;;;;;5078379;28;20451;-71
2023/11/02 09:18:59;;;;;;;2.03;1.93;;;;;;;;;;5077049;28;20455;-72
2023/11/02 09:21:29;;;;;;;2.00;1.80;;;;;;;;;;5092584;28;20456;-73
2023/11/02 09:23:55;;;;;;;4.40;1.80;;;;;;;;;;5091235;28;20481;-69
2023/11/02 09:26:22;;;;;;;2.17;1.77;;;;;;;;;;5082684;28;20482;-65
2023/11/02 09:28:48;;;;;;;2.37;2.23;;;;;;;;;;5080738;28;20498;-66
2023/11/02 09:31:17;;;;;;;2.40;2.00;;;;;;;;;;5088596;28;20444;-73
2023/11/02 09:33:43;;;;;;;2.20;2.00;;;;;;;;;;5083773;28;20448;-68
2023/11/02 09:36:10;;;;;;;2.20;2.10;;;;;;;;;;5072853;28;20599;-68
2023/11/02 09:38:38;;;;;;;2.00;1.90;;;;;;;;;;5075085;28;20474;-67
2023/11/02 09:41:04;;;;;;;2.40;2.20;;;;;;;;;;5087029;28;20451;-66
2023/11/02 09:43:31;;;;;;;1.80;1.70;;;;;;;;;;5077397;28;20551;-70
2023/11/02 09:45:57;;;;;;;2.20;2.10;;;;;;;;;;5093718;28;20544;-70
2023/11/02 09:48:24;;;;;;;2.67;2.47;;;;;;;;;;5085060;28;20526;-75
2023/11/02 09:50:51;;;;;;;2.20;2.10;;;;;;;;;;5077935;28;20955;-71
2023/11/02 09:53:17;;;;;;;2.10;2.00;;;;;;;;;;5086071;28;20879;-72
2023/11/02 09:55:45;;;;;;;2.43;2.30;;;;;;;;;;5076733;28;20455;-68
2023/11/02 09:58:14;;;;;;;2.17;2.00;;;;;;;;;;5092707;28;20475;-69
2023/11/02 10:00:41;;;;;;;2.03;1.93;;;;;;;;;;5082751;28;20454;-70
2023/11/02 10:03:07;;;;;;;2.30;2.20;;;;;;;;;;5092668;28;20449;-68
2023/11/02 10:05:34;;;;;;;1.90;1.80;;;;;;;;;;5082888;28;20460;-72
2023/11/02 10:08:00;;;;;;;2.20;2.10;;;;;;;;;;5086182;28;20483;-70
2023/11/02 10:10:29;;;;;;;2.37;2.17;;;;;;;;;;5082470;28;21085;-69
2023/11/02 10:12:57;;;;;;;2.30;2.20;;;;;;;;;;5084266;28;20453;-73
2023/11/02 10:15:23;;;;;;;2.60;2.00;;;;;;;;;;5080957;28;20907;-78
2023/11/02 10:17:50;;;;;;;2.20;2.10;;;;;;;;;;5081069;28;20432;-68
2023/11/02 10:20:18;;;;;;;2.20;2.10;;;;;;;;;;5082731;28;20828;-69
2023/11/02 10:22:45;;;;;;;2.27;2.17;;;;;;;;;;5078516;28;20456;-70
2023/11/02 10:25:12;;;;;;;2.17;2.07;;;;;;;;;;5082449;28;20515;-69
2023/11/02 10:27:41;;;;;;;2.47;2.10;;;;;;;;;;5077856;28;20506;-67
2023/11/02 10:30:10;;;;;;;2.20;2.10;;;;;;;;;;5087482;28;20523;-68
2023/11/02 10:32:36;;;;;;;2.67;2.33;;;;;;;;;;5085139;28;20462;-70
2023/11/02 10:35:03;;;;;;;2.30;2.20;;;;;;;;;;5079791;28;20448;-65
2023/11/02 10:37:31;;;;;;;2.30;2.20;;;;;;;;;;5076781;28;20442;-71
2023/11/02 10:39:58;;;;;;;2.10;2.00;;;;;;;;;;5071207;28;20480;-71
2023/11/02 10:42:25;;;;;;;2.00;1.90;;;;;;;;;;5076276;28;20512;-70
2023/11/02 10:44:52;;;;;;;2.17;2.07;;;;;;;;;;5085374;28;20482;-71
2023/11/02 10:47:20;;;;;;;2.40;2.20;;;;;;;;;;5078167;28;21000;-69
2023/11/02 10:49:51;;;;;;;2.70;2.60;;;;;;;;;;5088157;28;20443;-70
2023/11/02 10:52:21;;;;;;;2.40;2.30;;;;;;;;;;5081960;28;20464;-68
2023/11/02 10:54:53;;;;;;;2.47;2.37;;;;;;;;;;5074511;28;20483;-69
2023/11/02 10:57:22;;;;;;;2.60;2.50;;;;;;;;;;5088827;28;20427;-69
2023/11/02 10:59:49;;;;;;;2.50;2.40;;;;;;;;;;5080632;28;20575;-68
2023/11/02 11:02:17;;;;;;;2.40;2.20;;;;;;;;;;5083162;28;20458;-69
2023/11/02 11:04:46;;;;;;;2.30;2.20;;;;;;;;;;5086616;28;20439;-70
2023/11/02 11:07:13;;;;;;;2.40;2.30;;;;;;;;;;5071610;28;20452;-72
2023/11/02 11:09:40;;;;;;;1.90;1.80;;;;;;;;;;5091432;28;20486;-68
2023/11/02 11:12:07;;;;;;;2.20;2.10;;;;;;;;;;5066622;28;20524;-68
2023/11/02 11:14:35;;;;;;;1.90;1.80;;;;;;;;;;5076714;28;20983;-69
2023/11/02 11:17:02;;;;;;;2.03;1.93;;;;;;;;;;5068478;28;20456;-69
2023/11/02 11:19:30;;;;;;;2.27;2.17;;;;;;;;;;5072745;28;20559;-69
2023/11/02 11:21:58;;;;;;;2.10;2.00;;;;;;;;;;5070264;28;20486;-69
2023/11/02 11:24:29;;;;;;;2.20;2.10;;;;;;;;;;5074379;28;20507;-69
2023/11/02 11:26:56;;;;;;;2.70;2.60;;;;;;;;;;5076656;28;20472;-68
2023/11/02 11:29:32;;;;;;;2.53;2.00;;;;;;;;;;5083665;28;20517;-68
2023/11/02 11:31:59;;;;;;;2.17;2.07;;;;;;;;;;5084585;28;20547;-68
2023/11/02 11:34:26;;;;;;;2.03;1.93;;;;;;;;;;5074909;28;20472;-67
2023/11/02 11:36:52;;;;;;;2.00;1.90;;;;;;;;;;5078804;28;20452;-69
2023/11/02 11:39:36;;;;;;;2.00;1.90;;;;;;;;;;5083286;28;20967;-67
2023/11/02 11:42:03;;;;;;;2.10;2.00;;;;;;;;;;5076729;28;20500;-67
2023/11/02 11:44:30;;;;;;;2.13;1.93;;;;;;;;;;5076824;28;20543;-65
2023/11/02 11:46:56;;;;;;;3.13;1.83;;;;;;;;;;5089919;28;20514;-67
2023/11/02 11:49:44;;;;;;;1.80;1.70;;;;;;;;;;5083990;28;20499;-69
2023/11/02 11:52:19;;;;;;;2.30;2.20;;;;;;;;;;5090891;28;20812;-68
2023/11/02 11:54:47;;;;;;;2.70;2.50;;;;;;;;;;5091784;28;20470;-67
2023/11/02 11:57:28;;;;;;;2.97;2.77;;;;;;;;;;5076531;28;20461;-69
2023/11/02 12:00:09;;;;;;;3.07;2.87;;;;;;;;;;5092130;28;20883;-67
2023/11/02 12:02:36;;;;;;;2.97;2.80;;;;;;;;;;5089255;28;20458;-70
2023/11/02 12:05:03;;;;;;;2.30;2.20;;;;;;;;;;5086184;28;20479;-68
2023/11/02 12:07:29;;;;;;;2.57;2.40;;;;;;;;;;5088354;28;20440;-68
2023/11/02 12:10:01;;;;;;;2.50;2.40;;;;;;;;;;5073285;28;20491;-70
2023/11/02 12:12:28;;;;;;;2.20;2.10;;;;;;;;;;5080852;28;20539;-68
2023/11/02 12:14:55;;;;;;;2.23;2.07;;;;;;;;;;5082216;28;20911;-71
2023/11/02 12:17:21;;;;;;;2.57;2.47;;;;;;;;;;5082639;28;20471;-68
2023/11/02 12:19:49;;;;;;;2.50;2.40;;;;;;;;;;5086217;28;20462;-72
2023/11/02 12:22:16;;;;;;;2.33;2.23;;;;;;;;;;5082282;28;20444;-67
2023/11/02 12:24:55;;;;;;;2.93;2.73;;;;;;;;;;5081436;28;20480;-69
2023/11/02 12:27:23;;;;;;;3.60;3.30;;;;;;;;;;5090016;28;20440;-68
2023/11/02 12:29:58;;;;;;;2.43;2.23;;;;;;;;;;5096185;28;20516;-68
2023/11/02 12:32:25;;;;;;;2.70;2.50;;;;;;;;;;5093179;28;20447;-69
2023/11/02 12:34:54;;;;;;;2.70;2.60;;;;;;;;;;5092283;28;20505;-66
2023/11/02 12:37:21;;;;;;;2.47;2.37;;;;;;;;;;5074486;28;20490;-69
2023/11/02 12:39:56;;;;;;;2.43;2.33;;;;;;;;;;5086496;28;20447;-69
2023/11/02 12:42:25;;;;;;;2.87;2.67;;;;;;;;;;5085325;28;20475;-70
2023/11/02 12:44:52;;;;;;;2.03;1.93;;;;;;;;;;5089816;28;20477;-68
2023/11/02 12:47:19;;;;;;;1.93;1.83;;;;;;;;;;5082597;28;20455;-69
2023/11/02 12:49:45;;;;;;;1.50;1.40;;;;;;;;;;5093650;28;20497;-69
2023/11/02 12:52:11;;;;;;;2.00;1.90;;;;;;;;;;5096482;28;20516;-70
2023/11/02 12:54:38;;;;;;;1.90;1.80;;;;;;;;;;5099915;28;20975;-71
2023/11/02 12:57:05;;;;;;;2.43;2.33;;;;;;;;;;5095316;28;20454;-68
2023/11/02 12:59:37;;;;;;;2.90;2.70;;;;;;;;;;5094067;28;20457;-69
2023/11/02 13:02:06;;;;;;;2.47;2.27;;;;;;;;;;5090000;28;20447;-69
2023/11/02 13:04:47;;;;;;;2.60;2.40;;;;;;;;;;5097041;28;20510;-69
2023/11/02 13:07:20;;;;;;;2.67;2.47;;;;;;;;;;5092205;28;20446;-66
2023/11/02 13:09:58;;;;;;;2.17;2.07;;;;;;;;;;5098075;28;20973;-71
2023/11/02 13:12:25;;;;;;;2.40;2.20;;;;;;;;;;5082162;28;20457;-72
2023/11/02 13:14:53;;;;;;;2.77;2.57;;;;;;;;;;5097396;28;20451;-71
2023/11/02 13:17:20;;;;;;;2.80;2.60;;;;;;;;;;5087184;28;20952;-67
2023/11/02 13:19:51;;;;;;;2.53;2.20;;;;;;;;;;5096778;28;20443;-69
2023/11/02 13:22:17;;;;;;;2.93;2.60;;;;;;;;;;5095551;28;20491;-70
2023/11/02 13:24:44;;;;;;;2.60;2.50;;;;;;;;;;5094018;28;20479;-69
2023/11/02 13:27:10;;;;;;;2.70;2.50;;;;;;;;;;5080730;28;20440;-67
2023/11/02 13:29:37;;;;;;;5.30;2.60;;;;;;;;;;5088131;28;20501;-66
2023/11/02 13:32:05;;;;;;;2.20;2.10;;;;;;;;;;5087333;28;20452;-68
2023/11/02 13:34:31;;;;;;;5.80;3.03;;;;;;;;;;5083312;28;20501;-67
2023/11/02 13:36:59;;;;;;;2.47;2.37;;;;;;;;;;5089791;28;20451;-67
2023/11/02 13:39:25;;;;;;;3.00;2.80;;;;;;;;;;5085214;28;20513;-66
2023/11/02 13:41:51;;;;;;;3.10;2.80;;;;;;;;;;5080184;28;20495;-66
2023/11/02 13:44:18;;;;;;;2.60;2.50;;;;;;;;;;5074639;28;20462;-68
2023/11/02 13:46:44;;;;;;;2.97;2.77;;;;;;;;;;5074304;28;20452;-66
2023/11/02 13:49:12;;;;;;;3.80;2.73;;;;;;;;;;5076643;28;20484;-65
2023/11/02 13:51:39;;;;;;;2.23;2.13;;;;;;;;;;5084154;28;20875;-69
2023/11/02 13:54:05;;;;;;;8.50;2.10;;;;;;;;;;5082013;28;20463;-68
2023/11/02 13:56:32;;;;;;;3.43;2.27;;;;;;;;;;5096578;28;20773;-67
2023/11/02 13:58:58;;;;;;;1.60;1.43;;;;;;;;;;5087108;28;20444;-67
2023/11/02 14:01:25;;;;;;;2.70;2.57;;;;;;;;;;5092355;28;20479;-62
2023/11/02 14:03:52;;;;;;;4.70;2.57;;;;;;;;;;5095417;28;20517;-66
2023/11/02 14:06:20;;;;;;;3.00;2.80;;;;;;;;;;5093823;28;20480;-67
2023/11/02 14:08:47;;;;;;;3.07;2.87;;;;;;;;;;5090166;28;20514;-66
2023/11/02 14:11:13;;;;;;;3.43;3.23;;;;;;;;;;5077706;28;20444;-66
2023/11/02 14:13:42;;;;;;;2.70;2.50;;;;;;;;;;5083417;28;20457;-65
2023/11/02 14:16:09;;;;;;;2.83;2.60;;;;;;;;;;5088483;28;20486;-69
2023/11/02 14:18:35;;;;;;;4.90;3.10;;;;;;;;;;5087307;28;20452;-69
2023/11/02 14:21:02;;;;;;;3.20;3.00;;;;;;;;;;5090176;28;20484;-68
2023/11/02 14:23:30;;;;;;;3.10;2.83;;;;;;;;;;5090714;28;20483;-67
2023/11/02 14:25:56;;;;;;;2.83;2.60;;;;;;;;;;5092635;28;20478;-67
2023/11/02 14:28:23;;;;;;;3.10;2.90;;;;;;;;;;5079149;28;20490;-67
2023/11/02 14:30:50;;;;;;;3.00;2.80;;;;;;;;;;5086547;28;20484;-67
2023/11/02 14:33:17;;;;;;;3.40;3.20;;;;;;;;;;5079895;28;20459;-68
2023/11/02 14:35:43;;;;;;;3.30;3.07;;;;;;;;;;5086446;28;20478;-66
2023/11/02 14:38:10;;;;;;;3.30;3.00;;;;;;;;;;5086489;28;20451;-66
2023/11/02 14:40:38;;;;;;;4.43;2.90;;;;;;;;;;5082412;28;20455;-66
2023/11/02 14:43:05;;;;;;;3.20;2.90;;;;;;;;;;5077977;28;20443;-66
2023/11/02 14:45:31;;;;;;;3.60;3.40;;;;;;;;;;5084974;28;20454;-68
2023/11/02 14:47:57;;;;;;;3.47;3.17;;;;;;;;;;5076354;28;20566;-67
2023/11/02 14:50:24;;;;;;;3.60;3.30;;;;;;;;;;5070299;28;21007;-67